sensor_id;sensor_type;location;lat;lon;timestamp;pressure;altitude;pressure_sealevel;temperature;humidity
23303;BME280;11820;48.738;9.092;2023-07-16T00:01:29;96179.38;;;22.64;100.00
23303;BME280;11820;48.738;9.092;2023-07-16T00:03:54;96166.72;;;22.66;100.00
23303;BME280;11820;48.738;9.092;2023-07-16T00:06:19;96171.75;;;23.16;100.00
23303;BME280;11820;48.738;9.092;2023-07-16T00:08:45;96161.84;;;22.88;100.00
23303;BME280;11820;48.738;9.092;2023-07-16T00:11:10;96179.00;;;22.85;100.00
23303;BME280;11820;48.738;9.092;2023-07-16T00:13:35;96181.41;;;22.77;100.00
23303;BME280;11820;48.738;9.092;2023-07-16T00:16:01;96178.63;;;22.53;100.00
23303;BME280;11820;48.738;9.092;2023-07-16T00:18:26;96164.41;;;22.44;100.00
23303;BME280;11820;48.738;9.092;2023-07-16T00:20:51;96145.25;;;22.19;100.00
23303;BME280;11820;48.738;9.092;2023-07-16T00:23:17;96144.16;;;22.25;100.00
23303;BME280;11820;48.738;9.092;2023-07-16T00:25:42;96150.06;;;21.92;100.00
23303;BME280;11820;48.738;9.092;2023-07-16T00:28:07;96153.41;;;22.22;100.00
23303;BME280;11820;48.738;9.092;2023-07-16T00:30:33;96156.94;;;21.58;100.00
23303;BME280;11820;48.738;9.092;2023-07-16T00:32:58;96171.59;;;22.19;100.00
23303;BME280;11820;48.738;9.092;2023-07-16T00:35:23;96175.84;;;22.10;100.00
23303;BME280;11820;48.738;9.092;2023-07-16T00:37:49;96179.53;;;22.14;100.00
23303;BME280;11820;48.738;9.092;2023-07-16T00:40:14;96182.88;;;22.44;100.00
23303;BME280;11820;48.738;9.092;2023-07-16T00:42:39;96191.38;;;22.11;100.00
23303;BME280;11820;48.738;9.092;2023-07-16T00:45:11;96185.78;;;22.28;100.00
23303;BME280;11820;48.738;9.092;2023-07-16T00:47:37;96175.28;;;22.23;100.00
23303;BME280;11820;48.738;9.092;2023-07-16T00:50:02;96181.00;;;22.50;100.00
23303;BME280;11820;48.738;9.092;2023-07-16T00:52:28;96185.25;;;22.31;100.00
23303;BME280;11820;48.738;9.092;2023-07-16T00:54:53;96177.59;;;22.49;100.00
23303;BME280;11820;48.738;9.092;2023-07-16T00:57:19;96178.34;;;22.60;100.00
23303;BME280;11820;48.738;9.092;2023-07-16T00:59:44;96181.28;;;22.48;100.00
23303;BME280;11820;48.738;9.092;2023-07-16T01:02:09;96198.41;;;22.51;100.00
23303;BME280;11820;48.738;9.092;2023-07-16T01:04:35;96209.16;;;22.64;100.00
23303;BME280;11820;48.738;9.092;2023-07-16T01:07:04;96219.22;;;22.57;100.00
23303;BME280;11820;48.738;9.092;2023-07-16T01:09:30;96223.75;;;22.42;100.00
23303;BME280;11820;48.738;9.092;2023-07-16T01:11:57;96223.97;;;22.55;100.00
23303;BME280;11820;48.738;9.092;2023-07-16T01:14:25;96230.03;;;22.56;100.00
23303;BME280;11820;48.738;9.092;2023-07-16T01:16:50;96230.06;;;22.36;100.00
23303;BME280;11820;48.738;9.092;2023-07-16T01:19:18;96231.91;;;22.45;100.00
23303;BME280;11820;48.738;9.092;2023-07-16T01:22:08;96231.38;;;22.43;100.00
23303;BME280;11820;48.738;9.092;2023-07-16T01:30:27;96239.59;;;21.97;100.00
23303;BME280;11820;48.738;9.092;2023-07-16T01:32:54;96235.13;;;21.92;100.00
23303;BME280;11820;48.738;9.092;2023-07-16T01:35:20;96223.28;;;21.75;100.00
23303;BME280;11820;48.738;9.092;2023-07-16T01:37:46;96244.34;;;21.90;100.00
23303;BME280;11820;48.738;9.092;2023-07-16T01:40:12;96244.88;;;21.62;100.00
23303;BME280;11820;48.738;9.092;2023-07-16T01:42:38;96240.13;;;21.69;100.00
23303;BME280;11820;48.738;9.092;2023-07-16T01:45:03;96239.53;;;21.22;100.00
23303;BME280;11820;48.738;9.092;2023-07-16T01:50:03;96227.22;;;21.47;100.00
23303;BME280;11820;48.738;9.092;2023-07-16T01:52:29;96213.78;;;21.44;100.00
23303;BME280;11820;48.738;9.092;2023-07-16T01:54:54;96223.81;;;21.67;100.00
23303;BME280;11820;48.738;9.092;2023-07-16T01:57:19;96226.97;;;21.69;100.00
23303;BME280;11820;48.738;9.092;2023-07-16T01:59:45;96232.50;;;21.77;100.00
23303;BME280;11820;48.738;9.092;2023-07-16T02:02:11;96229.34;;;21.70;100.00
23303;BME280;11820;48.738;9.092;2023-07-16T02:04:36;96235.38;;;21.81;100.00
23303;BME280;11820;48.738;9.092;2023-07-16T02:07:02;96235.16;;;21.77;100.00
23303;BME280;11820;48.738;9.092;2023-07-16T02:09:28;96229.31;;;21.45;100.00
23303;BME280;11820;48.738;9.092;2023-07-16T02:11:54;96212.19;;;21.48;100.00
23303;BME280;11820;48.738;9.092;2023-07-16T02:14:19;96234.03;;;21.38;100.00
23303;BME280;11820;48.738;9.092;2023-07-16T02:16:44;96244.16;;;20.85;100.00
23303;BME280;11820;48.738;9.092;2023-07-16T02:19:10;96234.00;;;21.19;100.00
23303;BME280;11820;48.738;9.092;2023-07-16T02:21:35;96235.34;;;21.36;100.00
23303;BME280;11820;48.738;9.092;2023-07-16T02:24:00;96255.81;;;21.09;100.00
23303;BME280;11820;48.738;9.092;2023-07-16T02:26:26;96267.19;;;20.68;100.00
23303;BME280;11820;48.738;9.092;2023-07-16T02:28:51;96268.31;;;20.82;100.00
23303;BME280;11820;48.738;9.092;2023-07-16T02:31:16;96260.47;;;20.92;100.00
23303;BME280;11820;48.738;9.092;2023-07-16T02:33:42;96255.28;;;20.56;100.00
23303;BME280;11820;48.738;9.092;2023-07-16T02:36:07;96245.09;;;20.69;100.00
23303;BME280;11820;48.738;9.092;2023-07-16T02:38:33;96239.38;;;20.82;100.00
23303;BME280;11820;48.738;9.092;2023-07-16T02:40:58;96236.97;;;20.71;100.00
23303;BME280;11820;48.738;9.092;2023-07-16T02:43:23;96250.19;;;20.86;100.00
23303;BME280;11820;48.738;9.092;2023-07-16T02:45:49;96264.16;;;20.91;100.00
23303;BME280;11820;48.738;9.092;2023-07-16T02:48:14;96266.06;;;20.54;100.00
23303;BME280;11820;48.738;9.092;2023-07-16T02:50:39;96258.06;;;20.29;100.00
23303;BME280;11820;48.738;9.092;2023-07-16T02:53:06;96260.59;;;20.66;100.00
23303;BME280;11820;48.738;9.092;2023-07-16T02:55:32;96264.50;;;20.58;100.00
23303;BME280;11820;48.738;9.092;2023-07-16T02:57:57;96266.50;;;20.36;100.00
23303;BME280;11820;48.738;9.092;2023-07-16T03:00:23;96280.00;;;20.13;100.00
23303;BME280;11820;48.738;9.092;2023-07-16T03:02:48;96282.03;;;20.43;100.00
23303;BME280;11820;48.738;9.092;2023-07-16T03:05:15;96279.19;;;20.54;100.00
23303;BME280;11820;48.738;9.092;2023-07-16T03:07:41;96267.38;;;20.57;100.00
23303;BME280;11820;48.738;9.092;2023-07-16T03:10:06;96274.44;;;20.51;100.00
23303;BME280;11820;48.738;9.092;2023-07-16T03:12:32;96261.38;;;20.61;100.00
23303;BME280;11820;48.738;9.092;2023-07-16T03:14:57;96263.47;;;20.59;100.00
23303;BME280;11820;48.738;9.092;2023-07-16T03:17:22;96280.81;;;20.55;100.00
23303;BME280;11820;48.738;9.092;2023-07-16T03:19:48;96279.47;;;20.58;100.00
23303;BME280;11820;48.738;9.092;2023-07-16T03:22:14;96288.97;;;20.64;100.00
23303;BME280;11820;48.738;9.092;2023-07-16T03:24:39;96291.72;;;20.37;100.00
23303;BME280;11820;48.738;9.092;2023-07-16T03:27:06;96281.28;;;20.52;100.00
23303;BME280;11820;48.738;9.092;2023-07-16T03:29:32;96291.53;;;20.49;100.00
23303;BME280;11820;48.738;9.092;2023-07-16T03:31:58;96293.72;;;20.25;100.00
23303;BME280;11820;48.738;9.092;2023-07-16T03:34:23;96315.38;;;20.42;100.00
23303;BME280;11820;48.738;9.092;2023-07-16T03:36:49;96323.25;;;20.37;100.00
23303;BME280;11820;48.738;9.092;2023-07-16T03:39:14;96328.09;;;20.55;100.00
23303;BME280;11820;48.738;9.092;2023-07-16T03:41:40;96307.84;;;20.51;100.00
23303;BME280;11820;48.738;9.092;2023-07-16T03:44:05;96315.50;;;20.57;100.00
23303;BME280;11820;48.738;9.092;2023-07-16T03:46:30;96334.28;;;20.39;100.00
23303;BME280;11820;48.738;9.092;2023-07-16T03:48:56;96333.06;;;20.52;100.00
23303;BME280;11820;48.738;9.092;2023-07-16T03:51:21;96355.84;;;20.41;100.00
23303;BME280;11820;48.738;9.092;2023-07-16T03:53:47;96376.41;;;20.49;100.00
23303;BME280;11820;48.738;9.092;2023-07-16T03:56:12;96369.06;;;20.51;100.00
23303;BME280;11820;48.738;9.092;2023-07-16T03:58:37;96379.03;;;20.49;100.00
23303;BME280;11820;48.738;9.092;2023-07-16T04:01:03;96383.00;;;20.52;100.00
23303;BME280;11820;48.738;9.092;2023-07-16T04:03:28;96381.75;;;20.28;100.00
23303;BME280;11820;48.738;9.092;2023-07-16T04:06:04;96386.63;;;20.46;100.00
23303;BME280;11820;48.738;9.092;2023-07-16T04:08:29;96380.78;;;20.39;100.00
23303;BME280;11820;48.738;9.092;2023-07-16T04:10:55;96363.06;;;20.24;100.00
23303;BME280;11820;48.738;9.092;2023-07-16T04:13:20;96351.34;;;20.37;100.00
23303;BME280;11820;48.738;9.092;2023-07-16T04:15:46;96350.84;;;20.40;100.00
23303;BME280;11820;48.738;9.092;2023-07-16T04:18:11;96350.41;;;20.53;100.00
23303;BME280;11820;48.738;9.092;2023-07-16T04:20:37;96344.47;;;20.72;100.00
23303;BME280;11820;48.738;9.092;2023-07-16T04:23:02;96333.50;;;20.80;100.00
23303;BME280;11820;48.738;9.092;2023-07-16T04:25:27;96350.44;;;20.99;100.00
23303;BME280;11820;48.738;9.092;2023-07-16T04:27:53;96364.75;;;20.72;100.00
23303;BME280;11820;48.738;9.092;2023-07-16T04:30:18;96373.94;;;20.74;100.00
23303;BME280;11820;48.738;9.092;2023-07-16T04:32:43;96384.44;;;20.74;100.00
23303;BME280;11820;48.738;9.092;2023-07-16T04:35:09;96398.28;;;20.60;100.00
23303;BME280;11820;48.738;9.092;2023-07-16T04:37:34;96391.19;;;20.55;100.00
23303;BME280;11820;48.738;9.092;2023-07-16T04:39:59;96390.56;;;20.48;100.00
23303;BME280;11820;48.738;9.092;2023-07-16T04:42:25;96408.47;;;20.51;100.00
23303;BME280;11820;48.738;9.092;2023-07-16T04:44:50;96412.19;;;20.55;100.00
23303;BME280;11820;48.738;9.092;2023-07-16T04:47:15;96412.19;;;20.55;100.00
23303;BME280;11820;48.738;9.092;2023-07-16T04:49:41;96403.28;;;20.56;100.00
23303;BME280;11820;48.738;9.092;2023-07-16T04:52:06;96409.56;;;20.55;100.00
23303;BME280;11820;48.738;9.092;2023-07-16T04:54:37;96412.69;;;20.52;100.00
23303;BME280;11820;48.738;9.092;2023-07-16T04:57:06;96394.63;;;20.61;100.00
23303;BME280;11820;48.738;9.092;2023-07-16T04:59:32;96413.19;;;20.49;100.00
23303;BME280;11820;48.738;9.092;2023-07-16T05:01:58;96414.78;;;20.50;100.00
23303;BME280;11820;48.738;9.092;2023-07-16T05:04:23;96410.03;;;20.47;100.00
23303;BME280;11820;48.738;9.092;2023-07-16T05:06:49;96421.53;;;20.41;100.00
23303;BME280;11820;48.738;9.092;2023-07-16T05:09:14;96432.78;;;20.05;100.00
23303;BME280;11820;48.738;9.092;2023-07-16T05:11:40;96432.78;;;20.05;100.00
23303;BME280;11820;48.738;9.092;2023-07-16T05:14:05;96422.88;;;20.44;100.00
23303;BME280;11820;48.738;9.092;2023-07-16T05:16:30;96416.84;;;20.48;100.00
23303;BME280;11820;48.738;9.092;2023-07-16T05:18:55;96429.91;;;20.70;100.00
23303;BME280;11820;48.738;9.092;2023-07-16T05:21:21;96431.53;;;20.44;100.00
23303;BME280;11820;48.738;9.092;2023-07-16T05:23:46;96424.66;;;20.70;100.00
23303;BME280;11820;48.738;9.092;2023-07-16T05:26:11;96429.97;;;20.80;100.00
23303;BME280;11820;48.738;9.092;2023-07-16T05:28:37;96422.78;;;20.65;100.00
23303;BME280;11820;48.738;9.092;2023-07-16T05:31:03;96431.09;;;20.84;100.00
23303;BME280;11820;48.738;9.092;2023-07-16T05:33:28;96424.94;;;20.73;100.00
23303;BME280;11820;48.738;9.092;2023-07-16T05:35:54;96430.97;;;20.69;100.00
23303;BME280;11820;48.738;9.092;2023-07-16T05:38:20;96447.34;;;20.81;100.00
23303;BME280;11820;48.738;9.092;2023-07-16T05:40:46;96437.38;;;20.83;100.00
23303;BME280;11820;48.738;9.092;2023-07-16T05:43:11;96430.50;;;20.77;100.00
23303;BME280;11820;48.738;9.092;2023-07-16T05:45:37;96442.81;;;20.76;100.00
23303;BME280;11820;48.738;9.092;2023-07-16T05:48:02;96462.50;;;20.37;100.00
23303;BME280;11820;48.738;9.092;2023-07-16T05:50:28;96455.09;;;20.66;100.00
23303;BME280;11820;48.738;9.092;2023-07-16T05:52:54;96459.06;;;20.68;100.00
23303;BME280;11820;48.738;9.092;2023-07-16T05:55:19;96441.22;;;20.70;100.00
23303;BME280;11820;48.738;9.092;2023-07-16T05:57:45;96449.28;;;20.90;100.00
23303;BME280;11820;48.738;9.092;2023-07-16T06:00:10;96450.84;;;20.86;100.00
23303;BME280;11820;48.738;9.092;2023-07-16T06:02:36;96447.56;;;20.79;100.00
23303;BME280;11820;48.738;9.092;2023-07-16T06:05:01;96442.41;;;20.84;100.00
23303;BME280;11820;48.738;9.092;2023-07-16T06:07:26;96426.38;;;20.91;100.00
23303;BME280;11820;48.738;9.092;2023-07-16T06:09:52;96438.09;;;20.78;100.00
23303;BME280;11820;48.738;9.092;2023-07-16T06:12:17;96454.31;;;20.65;100.00
23303;BME280;11820;48.738;9.092;2023-07-16T06:14:42;96457.69;;;20.61;100.00
23303;BME280;11820;48.738;9.092;2023-07-16T06:17:08;96475.19;;;20.45;100.00
23303;BME280;11820;48.738;9.092;2023-07-16T06:19:34;96463.09;;;20.44;100.00
23303;BME280;11820;48.738;9.092;2023-07-16T06:21:59;96454.91;;;20.72;100.00
23303;BME280;11820;48.738;9.092;2023-07-16T06:24:24;96447.81;;;20.73;100.00
23303;BME280;11820;48.738;9.092;2023-07-16T06:26:50;96445.31;;;20.56;100.00
23303;BME280;11820;48.738;9.092;2023-07-16T06:29:15;96459.44;;;20.82;100.00
23303;BME280;11820;48.738;9.092;2023-07-16T06:31:42;96460.03;;;20.89;100.00
23303;BME280;11820;48.738;9.092;2023-07-16T06:34:08;96449.31;;;20.64;100.00
23303;BME280;11820;48.738;9.092;2023-07-16T06:36:34;96460.66;;;21.01;100.00
23303;BME280;11820;48.738;9.092;2023-07-16T06:38:59;96460.91;;;20.99;100.00
23303;BME280;11820;48.738;9.092;2023-07-16T06:41:25;96452.00;;;21.05;100.00
23303;BME280;11820;48.738;9.092;2023-07-16T06:43:50;96451.59;;;21.23;100.00
23303;BME280;11820;48.738;9.092;2023-07-16T06:46:16;96456.50;;;21.10;100.00
23303;BME280;11820;48.738;9.092;2023-07-16T06:48:41;96456.84;;;21.23;100.00
23303;BME280;11820;48.738;9.092;2023-07-16T06:51:06;96449.88;;;21.02;100.00
23303;BME280;11820;48.738;9.092;2023-07-16T06:53:32;96447.78;;;21.04;100.00
23303;BME280;11820;48.738;9.092;2023-07-16T06:55:58;96456.47;;;20.73;100.00
23303;BME280;11820;48.738;9.092;2023-07-16T06:58:33;96466.94;;;20.63;100.00
23303;BME280;11820;48.738;9.092;2023-07-16T07:00:58;96467.44;;;20.60;100.00
23303;BME280;11820;48.738;9.092;2023-07-16T07:03:24;96468.09;;;20.19;100.00
23303;BME280;11820;48.738;9.092;2023-07-16T07:05:49;96473.41;;;20.24;100.00
23303;BME280;11820;48.738;9.092;2023-07-16T07:08:15;96460.25;;;20.51;100.00
23303;BME280;11820;48.738;9.092;2023-07-16T07:10:40;96455.47;;;20.79;100.00
23303;BME280;11820;48.738;9.092;2023-07-16T07:13:06;96450.78;;;20.81;100.00
23303;BME280;11820;48.738;9.092;2023-07-16T07:15:31;96454.25;;;20.55;100.00
23303;BME280;11820;48.738;9.092;2023-07-16T07:17:56;96453.81;;;20.68;100.00
23303;BME280;11820;48.738;9.092;2023-07-16T07:20:21;96450.00;;;20.54;100.00
23303;BME280;11820;48.738;9.092;2023-07-16T07:22:47;96437.75;;;20.65;100.00
23303;BME280;11820;48.738;9.092;2023-07-16T07:25:12;96457.81;;;20.44;100.00
23303;BME280;11820;48.738;9.092;2023-07-16T07:27:37;96455.56;;;20.58;100.00
23303;BME280;11820;48.738;9.092;2023-07-16T07:30:03;96454.84;;;20.62;100.00
23303;BME280;11820;48.738;9.092;2023-07-16T07:32:29;96461.38;;;20.60;100.00
23303;BME280;11820;48.738;9.092;2023-07-16T07:34:54;96477.44;;;20.63;100.00
23303;BME280;11820;48.738;9.092;2023-07-16T07:37:19;96475.16;;;20.72;100.00
23303;BME280;11820;48.738;9.092;2023-07-16T07:39:45;96477.38;;;20.85;100.00
23303;BME280;11820;48.738;9.092;2023-07-16T07:42:15;96472.75;;;20.70;100.00
23303;BME280;11820;48.738;9.092;2023-07-16T07:44:40;96469.66;;;20.78;100.00
23303;BME280;11820;48.738;9.092;2023-07-16T07:47:05;96472.38;;;20.83;100.00
23303;BME280;11820;48.738;9.092;2023-07-16T07:49:33;96462.03;;;20.77;100.00
23303;BME280;11820;48.738;9.092;2023-07-16T07:51:59;96468.81;;;20.68;100.00
23303;BME280;11820;48.738;9.092;2023-07-16T07:54:25;96469.00;;;20.61;100.00
23303;BME280;11820;48.738;9.092;2023-07-16T07:56:50;96475.53;;;20.85;100.00
23303;BME280;11820;48.738;9.092;2023-07-16T07:59:15;96479.44;;;21.19;100.00
23303;BME280;11820;48.738;9.092;2023-07-16T08:01:40;96481.47;;;21.48;100.00
23303;BME280;11820;48.738;9.092;2023-07-16T08:04:06;96483.59;;;21.56;100.00
23303;BME280;11820;48.738;9.092;2023-07-16T08:06:31;96489.09;;;21.50;100.00
23303;BME280;11820;48.738;9.092;2023-07-16T08:08:57;96492.03;;;21.53;100.00
23303;BME280;11820;48.738;9.092;2023-07-16T08:11:22;96486.25;;;21.56;100.00
23303;BME280;11820;48.738;9.092;2023-07-16T08:13:47;96489.06;;;21.40;100.00
23303;BME280;11820;48.738;9.092;2023-07-16T08:16:14;96477.16;;;20.91;100.00
23303;BME280;11820;48.738;9.092;2023-07-16T08:18:39;96473.66;;;21.17;100.00
23303;BME280;11820;48.738;9.092;2023-07-16T08:21:05;96482.22;;;21.39;100.00
23303;BME280;11820;48.738;9.092;2023-07-16T08:23:30;96477.34;;;21.62;100.00
23303;BME280;11820;48.738;9.092;2023-07-16T08:25:55;96470.88;;;21.85;100.00
23303;BME280;11820;48.738;9.092;2023-07-16T08:28:21;96457.66;;;21.80;100.00
23303;BME280;11820;48.738;9.092;2023-07-16T08:30:47;96449.44;;;21.66;100.00
23303;BME280;11820;48.738;9.092;2023-07-16T08:33:13;96449.22;;;21.78;100.00
23303;BME280;11820;48.738;9.092;2023-07-16T08:35:39;96451.69;;;22.19;100.00
23303;BME280;11820;48.738;9.092;2023-07-16T08:38:05;96476.16;;;21.95;100.00
23303;BME280;11820;48.738;9.092;2023-07-16T08:40:35;96466.72;;;22.24;100.00
23303;BME280;11820;48.738;9.092;2023-07-16T08:43:00;96462.34;;;22.54;100.00
23303;BME280;11820;48.738;9.092;2023-07-16T08:45:28;96468.66;;;22.73;100.00
23303;BME280;11820;48.738;9.092;2023-07-16T08:47:55;96464.63;;;22.26;100.00
23303;BME280;11820;48.738;9.092;2023-07-16T08:50:21;96477.28;;;21.57;100.00
23303;BME280;11820;48.738;9.092;2023-07-16T08:52:48;96479.59;;;21.95;100.00
23303;BME280;11820;48.738;9.092;2023-07-16T08:55:13;96471.88;;;21.79;100.00
23303;BME280;11820;48.738;9.092;2023-07-16T08:57:39;96467.44;;;21.94;100.00
23303;BME280;11820;48.738;9.092;2023-07-16T09:00:06;96472.28;;;22.27;100.00
23303;BME280;11820;48.738;9.092;2023-07-16T09:02:32;96477.84;;;22.36;100.00
23303;BME280;11820;48.738;9.092;2023-07-16T09:04:58;96476.75;;;22.32;100.00
23303;BME280;11820;48.738;9.092;2023-07-16T09:07:24;96481.41;;;21.85;100.00
23303;BME280;11820;48.738;9.092;2023-07-16T09:09:59;96477.50;;;22.02;100.00
23303;BME280;11820;48.738;9.092;2023-07-16T09:12:25;96468.31;;;22.20;100.00
23303;BME280;11820;48.738;9.092;2023-07-16T09:14:51;96470.72;;;22.36;100.00
23303;BME280;11820;48.738;9.092;2023-07-16T09:17:21;96478.84;;;22.15;100.00
23303;BME280;11820;48.738;9.092;2023-07-16T09:19:47;96475.69;;;22.08;100.00
23303;BME280;11820;48.738;9.092;2023-07-16T09:22:13;96467.25;;;22.31;100.00
23303;BME280;11820;48.738;9.092;2023-07-16T09:24:38;96473.03;;;22.13;100.00
23303;BME280;11820;48.738;9.092;2023-07-16T09:27:04;96480.97;;;22.28;100.00
23303;BME280;11820;48.738;9.092;2023-07-16T09:29:29;96481.31;;;22.51;100.00
23303;BME280;11820;48.738;9.092;2023-07-16T09:32:04;96473.69;;;22.60;100.00
23303;BME280;11820;48.738;9.092;2023-07-16T09:34:32;96473.34;;;22.26;100.00
23303;BME280;11820;48.738;9.092;2023-07-16T09:36:58;96466.72;;;22.19;100.00
23303;BME280;11820;48.738;9.092;2023-07-16T09:39:24;96471.47;;;22.27;100.00
23303;BME280;11820;48.738;9.092;2023-07-16T09:41:50;96475.97;;;22.36;100.00
23303;BME280;11820;48.738;9.092;2023-07-16T09:44:16;96471.56;;;22.62;100.00
23303;BME280;11820;48.738;9.092;2023-07-16T09:46:43;96484.66;;;22.27;100.00
23303;BME280;11820;48.738;9.092;2023-07-16T09:49:09;96482.56;;;22.29;100.00
23303;BME280;11820;48.738;9.092;2023-07-16T09:51:38;96469.19;;;22.60;100.00
23303;BME280;11820;48.738;9.092;2023-07-16T09:54:04;96465.22;;;22.58;100.00
23303;BME280;11820;48.738;9.092;2023-07-16T09:58:59;96469.44;;;22.69;100.00
23303;BME280;11820;48.738;9.092;2023-07-16T10:01:25;96464.16;;;22.84;100.00
23303;BME280;11820;48.738;9.092;2023-07-16T10:03:51;96474.69;;;22.59;100.00
23303;BME280;11820;48.738;9.092;2023-07-16T10:06:17;96479.47;;;22.62;100.00
23303;BME280;11820;48.738;9.092;2023-07-16T10:08:49;96476.56;;;22.63;100.00
23303;BME280;11820;48.738;9.092;2023-07-16T10:11:18;96476.31;;;22.70;100.00
23303;BME280;11820;48.738;9.092;2023-07-16T10:13:49;96467.31;;;22.96;100.00
23303;BME280;11820;48.738;9.092;2023-07-16T10:16:21;96471.28;;;22.93;100.00
23303;BME280;11820;48.738;9.092;2023-07-16T10:18:52;96477.91;;;23.16;100.00
23303;BME280;11820;48.738;9.092;2023-07-16T10:21:24;96466.53;;;22.90;100.00
23303;BME280;11820;48.738;9.092;2023-07-16T10:23:58;96467.06;;;22.82;100.00
23303;BME280;11820;48.738;9.092;2023-07-16T10:26:28;96466.81;;;22.89;100.00
23303;BME280;11820;48.738;9.092;2023-07-16T10:28:56;96455.16;;;23.24;100.00
23303;BME280;11820;48.738;9.092;2023-07-16T10:31:23;96456.38;;;23.62;100.00
23303;BME280;11820;48.738;9.092;2023-07-16T10:34:00;96450.06;;;23.48;100.00
23303;BME280;11820;48.738;9.092;2023-07-16T10:36:25;96456.19;;;23.38;100.00
23303;BME280;11820;48.738;9.092;2023-07-16T10:38:51;96451.16;;;23.42;100.00
23303;BME280;11820;48.738;9.092;2023-07-16T10:41:17;96451.75;;;23.09;100.00
23303;BME280;11820;48.738;9.092;2023-07-16T10:43:42;96446.94;;;23.36;100.00
23303;BME280;11820;48.738;9.092;2023-07-16T10:46:09;96443.41;;;23.70;100.00
23303;BME280;11820;48.738;9.092;2023-07-16T10:48:34;96448.81;;;23.30;100.00
23303;BME280;11820;48.738;9.092;2023-07-16T10:50:59;96445.13;;;23.36;100.00
23303;BME280;11820;48.738;9.092;2023-07-16T10:53:25;96448.19;;;23.63;100.00
23303;BME280;11820;48.738;9.092;2023-07-16T10:55:50;96458.25;;;23.61;97.86
23303;BME280;11820;48.738;9.092;2023-07-16T10:58:16;96451.84;;;23.72;100.00
23303;BME280;11820;48.738;9.092;2023-07-16T11:00:41;96451.28;;;23.85;98.65
23303;BME280;11820;48.738;9.092;2023-07-16T11:03:07;96455.00;;;23.74;94.90
23303;BME280;11820;48.738;9.092;2023-07-16T11:05:32;96446.50;;;23.92;93.76
23303;BME280;11820;48.738;9.092;2023-07-16T11:07:57;96447.97;;;24.13;96.28
23303;BME280;11820;48.738;9.092;2023-07-16T11:10:23;96452.59;;;24.31;94.94
23303;BME280;11820;48.738;9.092;2023-07-16T11:12:53;96445.09;;;24.48;94.39
23303;BME280;11820;48.738;9.092;2023-07-16T11:15:29;96448.38;;;24.30;96.77
23303;BME280;11820;48.738;9.092;2023-07-16T11:17:54;96450.75;;;24.32;92.79
23303;BME280;11820;48.738;9.092;2023-07-16T11:20:19;96441.16;;;24.79;93.26
23303;BME280;11820;48.738;9.092;2023-07-16T11:22:46;96444.50;;;24.89;91.90
23303;BME280;11820;48.738;9.092;2023-07-16T11:25:12;96433.81;;;25.28;90.86
23303;BME280;11820;48.738;9.092;2023-07-16T11:27:40;96435.75;;;24.94;88.94
23303;BME280;11820;48.738;9.092;2023-07-16T11:30:06;96443.41;;;24.62;90.32
23303;BME280;11820;48.738;9.092;2023-07-16T11:32:34;96454.69;;;24.34;89.57
23303;BME280;11820;48.738;9.092;2023-07-16T11:35:04;96446.94;;;24.53;90.24
23303;BME280;11820;48.738;9.092;2023-07-16T11:37:31;96442.69;;;24.47;88.91
23303;BME280;11820;48.738;9.092;2023-07-16T11:40:02;96441.75;;;24.33;88.50
23303;BME280;11820;48.738;9.092;2023-07-16T11:44:57;96438.81;;;24.73;88.73
23303;BME280;11820;48.738;9.092;2023-07-16T11:47:23;96424.13;;;24.90;88.72
23303;BME280;11820;48.738;9.092;2023-07-16T11:49:49;96428.38;;;24.58;87.75
23303;BME280;11820;48.738;9.092;2023-07-16T11:52:19;96425.84;;;24.76;87.47
23303;BME280;11820;48.738;9.092;2023-07-16T11:54:44;96429.59;;;24.70;87.40
23303;BME280;11820;48.738;9.092;2023-07-16T11:57:10;96437.66;;;24.50;87.54
23303;BME280;11820;48.738;9.092;2023-07-16T11:59:35;96428.69;;;24.51;87.05
23303;BME280;11820;48.738;9.092;2023-07-16T12:02:00;96426.81;;;24.13;87.50
23303;BME280;11820;48.738;9.092;2023-07-16T12:04:26;96419.66;;;24.14;87.64
23303;BME280;11820;48.738;9.092;2023-07-16T12:06:52;96408.41;;;24.37;88.02
23303;BME280;11820;48.738;9.092;2023-07-16T12:09:17;96408.44;;;24.32;88.36
23303;BME280;11820;48.738;9.092;2023-07-16T12:11:43;96402.63;;;24.68;88.38
23303;BME280;11820;48.738;9.092;2023-07-16T12:14:08;96393.53;;;24.79;87.57
23303;BME280;11820;48.738;9.092;2023-07-16T12:16:33;96393.19;;;24.57;88.03
23303;BME280;11820;48.738;9.092;2023-07-16T12:18:59;96403.22;;;24.88;86.86
23303;BME280;11820;48.738;9.092;2023-07-16T12:21:24;96406.34;;;25.24;84.27
23303;BME280;11820;48.738;9.092;2023-07-16T12:23:49;96389.28;;;25.06;84.88
23303;BME280;11820;48.738;9.092;2023-07-16T12:26:15;96387.03;;;25.65;85.73
23303;BME280;11820;48.738;9.092;2023-07-16T12:28:40;96385.91;;;25.48;83.32
23303;BME280;11820;48.738;9.092;2023-07-16T12:31:05;96389.03;;;25.73;84.77
23303;BME280;11820;48.738;9.092;2023-07-16T12:33:31;96381.47;;;26.22;83.51
23303;BME280;11820;48.738;9.092;2023-07-16T12:35:56;96371.34;;;26.43;82.59
23303;BME280;11820;48.738;9.092;2023-07-16T12:38:21;96379.47;;;26.64;81.09
23303;BME280;11820;48.738;9.092;2023-07-16T12:40:47;96392.19;;;26.67;80.49
23303;BME280;11820;48.738;9.092;2023-07-16T12:43:13;96381.34;;;26.64;80.34
23303;BME280;11820;48.738;9.092;2023-07-16T12:45:38;96377.75;;;26.73;80.17
23303;BME280;11820;48.738;9.092;2023-07-16T12:48:03;96386.97;;;26.76;79.47
23303;BME280;11820;48.738;9.092;2023-07-16T12:50:29;96400.13;;;26.99;78.89
23303;BME280;11820;48.738;9.092;2023-07-16T12:52:54;96380.81;;;26.49;78.02
23303;BME280;11820;48.738;9.092;2023-07-16T12:55:20;96383.78;;;26.61;76.94
23303;BME280;11820;48.738;9.092;2023-07-16T12:57:45;96379.91;;;26.71;79.36
23303;BME280;11820;48.738;9.092;2023-07-16T13:00:11;96382.94;;;26.47;78.61